sensor_id;sensor_type;location;lat;lon;timestamp;temperature;humidity
32534;DHT22;18973;48.580;8.912;2023-09-19T00:02:03;16.60;99.90
32534;DHT22;18973;48.580;8.912;2023-09-19T00:04:32;16.60;99.90
32534;DHT22;18973;48.580;8.912;2023-09-19T00:06:58;16.70;99.90
32534;DHT22;18973;48.580;8.912;2023-09-19T00:09:24;16.60;99.90
32534;DHT22;18973;48.580;8.912;2023-09-19T00:11:53;16.60;99.90
32534;DHT22;18973;48.580;8.912;2023-09-19T00:14:19;16.50;99.90
32534;DHT22;18973;48.580;8.912;2023-09-19T00:16:45;16.40;99.90
32534;DHT22;18973;48.580;8.912;2023-09-19T00:19:11;16.50;99.90
32534;DHT22;18973;48.580;8.912;2023-09-19T00:21:37;16.50;99.90
32534;DHT22;18973;48.580;8.912;2023-09-19T00:24:04;16.50;99.90
32534;DHT22;18973;48.580;8.912;2023-09-19T00:26:32;16.50;99.90
32534;DHT22;18973;48.580;8.912;2023-09-19T00:28:58;16.40;99.90
32534;DHT22;18973;48.580;8.912;2023-09-19T00:31:30;16.40;99.90
32534;DHT22;18973;48.580;8.912;2023-09-19T00:33:56;16.40;99.90
32534;DHT22;18973;48.580;8.912;2023-09-19T00:36:27;16.50;99.90
32534;DHT22;18973;48.580;8.912;2023-09-19T00:38:54;16.50;99.90
32534;DHT22;18973;48.580;8.912;2023-09-19T00:41:20;16.50;99.90
32534;DHT22;18973;48.580;8.912;2023-09-19T00:43:46;16.50;99.90
32534;DHT22;18973;48.580;8.912;2023-09-19T00:46:16;16.50;99.90
32534;DHT22;18973;48.580;8.912;2023-09-19T00:48:42;16.50;99.90
32534;DHT22;18973;48.580;8.912;2023-09-19T00:51:12;16.40;99.90
32534;DHT22;18973;48.580;8.912;2023-09-19T00:53:39;16.50;99.90
32534;DHT22;18973;48.580;8.912;2023-09-19T00:56:11;16.40;99.90
32534;DHT22;18973;48.580;8.912;2023-09-19T00:58:37;16.60;99.90
32534;DHT22;18973;48.580;8.912;2023-09-19T01:01:04;16.50;99.90
32534;DHT22;18973;48.580;8.912;2023-09-19T01:03:33;16.50;99.90
32534;DHT22;18973;48.580;8.912;2023-09-19T01:06:01;16.50;99.90
32534;DHT22;18973;48.580;8.912;2023-09-19T01:08:28;16.30;99.90
32534;DHT22;18973;48.580;8.912;2023-09-19T01:11:21;16.30;99.90
32534;DHT22;18973;48.580;8.912;2023-09-19T01:14:11;16.20;99.90
32534;DHT22;18973;48.580;8.912;2023-09-19T01:16:56;16.30;99.90
32534;DHT22;18973;48.580;8.912;2023-09-19T01:19:53;16.30;99.90
32534;DHT22;18973;48.580;8.912;2023-09-19T01:22:48;16.30;99.90
32534;DHT22;18973;48.580;8.912;2023-09-19T01:28:31;16.30;99.90
32534;DHT22;18973;48.580;8.912;2023-09-19T01:31:02;16.40;99.90
32534;DHT22;18973;48.580;8.912;2023-09-19T01:33:53;16.30;99.90
32534;DHT22;18973;48.580;8.912;2023-09-19T01:36:16;16.40;99.90
32534;DHT22;18973;48.580;8.912;2023-09-19T01:38:42;16.40;99.90
32534;DHT22;18973;48.580;8.912;2023-09-19T01:41:11;16.40;99.90
32534;DHT22;18973;48.580;8.912;2023-09-19T01:43:46;16.30;99.90
32534;DHT22;18973;48.580;8.912;2023-09-19T01:46:16;16.20;99.90
32534;DHT22;18973;48.580;8.912;2023-09-19T01:48:56;16.30;99.90
32534;DHT22;18973;48.580;8.912;2023-09-19T01:51:39;16.30;99.90
32534;DHT22;18973;48.580;8.912;2023-09-19T01:54:10;16.30;99.90
32534;DHT22;18973;48.580;8.912;2023-09-19T01:56:48;16.20;99.90
32534;DHT22;18973;48.580;8.912;2023-09-19T01:59:24;16.10;99.90
32534;DHT22;18973;48.580;8.912;2023-09-19T02:01:53;15.90;99.90
32534;DHT22;18973;48.580;8.912;2023-09-19T02:04:20;15.80;99.90
32534;DHT22;18973;48.580;8.912;2023-09-19T02:06:45;15.90;99.90
32534;DHT22;18973;48.580;8.912;2023-09-19T02:09:14;15.80;99.90
32534;DHT22;18973;48.580;8.912;2023-09-19T02:11:42;15.80;99.90
32534;DHT22;18973;48.580;8.912;2023-09-19T02:14:08;15.70;99.90
32534;DHT22;18973;48.580;8.912;2023-09-19T02:16:34;15.70;99.90
32534;DHT22;18973;48.580;8.912;2023-09-19T02:19:00;15.70;99.90
32534;DHT22;18973;48.580;8.912;2023-09-19T02:21:30;15.60;99.90
32534;DHT22;18973;48.580;8.912;2023-09-19T02:23:56;15.60;99.90
32534;DHT22;18973;48.580;8.912;2023-09-19T02:26:22;15.60;99.90
32534;DHT22;18973;48.580;8.912;2023-09-19T02:28:50;15.60;99.90
32534;DHT22;18973;48.580;8.912;2023-09-19T02:31:15;15.50;99.90
32534;DHT22;18973;48.580;8.912;2023-09-19T02:33:42;15.50;99.90
32534;DHT22;18973;48.580;8.912;2023-09-19T02:36:09;15.50;99.90
32534;DHT22;18973;48.580;8.912;2023-09-19T02:38:35;15.40;99.90
32534;DHT22;18973;48.580;8.912;2023-09-19T02:41:00;15.40;99.90
32534;DHT22;18973;48.580;8.912;2023-09-19T02:43:27;15.40;99.90
32534;DHT22;18973;48.580;8.912;2023-09-19T02:45:53;15.50;99.90
32534;DHT22;18973;48.580;8.912;2023-09-19T02:48:20;15.40;99.90
32534;DHT22;18973;48.580;8.912;2023-09-19T02:50:49;15.40;99.90
32534;DHT22;18973;48.580;8.912;2023-09-19T02:53:14;15.40;99.90
32534;DHT22;18973;48.580;8.912;2023-09-19T02:55:40;15.40;99.90
32534;DHT22;18973;48.580;8.912;2023-09-19T02:58:07;15.40;99.90
32534;DHT22;18973;48.580;8.912;2023-09-19T03:00:39;15.50;99.90
32534;DHT22;18973;48.580;8.912;2023-09-19T03:03:07;15.50;99.90
32534;DHT22;18973;48.580;8.912;2023-09-19T03:05:34;15.60;99.90
32534;DHT22;18973;48.580;8.912;2023-09-19T03:08:00;15.80;99.90
32534;DHT22;18973;48.580;8.912;2023-09-19T03:10:27;15.70;99.90
32534;DHT22;18973;48.580;8.912;2023-09-19T03:12:53;15.70;99.90
32534;DHT22;18973;48.580;8.912;2023-09-19T03:15:19;15.70;99.90
32534;DHT22;18973;48.580;8.912;2023-09-19T03:17:46;15.80;99.90
32534;DHT22;18973;48.580;8.912;2023-09-19T03:20:13;15.80;99.90
32534;DHT22;18973;48.580;8.912;2023-09-19T03:22:43;15.80;99.90
32534;DHT22;18973;48.580;8.912;2023-09-19T03:25:09;15.80;99.90
32534;DHT22;18973;48.580;8.912;2023-09-19T03:27:38;15.90;99.90
32534;DHT22;18973;48.580;8.912;2023-09-19T03:30:05;15.90;99.90
32534;DHT22;18973;48.580;8.912;2023-09-19T03:32:35;16.00;99.90
32534;DHT22;18973;48.580;8.912;2023-09-19T03:35:01;15.90;99.90
32534;DHT22;18973;48.580;8.912;2023-09-19T03:37:27;15.90;99.90
32534;DHT22;18973;48.580;8.912;2023-09-19T03:39:52;15.90;99.90
32534;DHT22;18973;48.580;8.912;2023-09-19T03:42:18;15.90;99.90
32534;DHT22;18973;48.580;8.912;2023-09-19T03:44:50;15.90;99.90
32534;DHT22;18973;48.580;8.912;2023-09-19T03:47:17;15.90;99.90
32534;DHT22;18973;48.580;8.912;2023-09-19T03:49:44;16.00;99.90
32534;DHT22;18973;48.580;8.912;2023-09-19T03:52:10;15.90;99.90
32534;DHT22;18973;48.580;8.912;2023-09-19T03:54:36;15.90;99.90
32534;DHT22;18973;48.580;8.912;2023-09-19T03:57:02;15.90;99.90
32534;DHT22;18973;48.580;8.912;2023-09-19T03:59:30;15.90;99.90
32534;DHT22;18973;48.580;8.912;2023-09-19T04:01:56;16.00;99.90
32534;DHT22;18973;48.580;8.912;2023-09-19T04:04:22;16.00;99.90
32534;DHT22;18973;48.580;8.912;2023-09-19T04:06:51;16.00;99.90
32534;DHT22;18973;48.580;8.912;2023-09-19T04:09:16;16.00;99.90
32534;DHT22;18973;48.580;8.912;2023-09-19T04:11:42;16.00;99.90
32534;DHT22;18973;48.580;8.912;2023-09-19T04:14:08;16.20;99.90
32534;DHT22;18973;48.580;8.912;2023-09-19T04:16:33;16.00;99.90
32534;DHT22;18973;48.580;8.912;2023-09-19T04:18:59;16.00;99.90
32534;DHT22;18973;48.580;8.912;2023-09-19T04:21:25;16.10;99.90
32534;DHT22;18973;48.580;8.912;2023-09-19T04:23:51;16.10;99.90
32534;DHT22;18973;48.580;8.912;2023-09-19T04:26:17;16.10;99.90
32534;DHT22;18973;48.580;8.912;2023-09-19T04:28:43;16.20;99.90
32534;DHT22;18973;48.580;8.912;2023-09-19T04:31:09;16.20;99.90
32534;DHT22;18973;48.580;8.912;2023-09-19T04:33:35;16.20;99.90
32534;DHT22;18973;48.580;8.912;2023-09-19T04:36:02;16.20;99.90
32534;DHT22;18973;48.580;8.912;2023-09-19T04:38:29;16.20;99.90
32534;DHT22;18973;48.580;8.912;2023-09-19T04:40:58;16.10;99.90
32534;DHT22;18973;48.580;8.912;2023-09-19T04:43:26;16.10;99.90
32534;DHT22;18973;48.580;8.912;2023-09-19T04:45:52;16.10;99.90
32534;DHT22;18973;48.580;8.912;2023-09-19T04:48:22;16.10;99.90
32534;DHT22;18973;48.580;8.912;2023-09-19T04:50:49;16.10;99.90
32534;DHT22;18973;48.580;8.912;2023-09-19T04:53:17;16.10;99.90
32534;DHT22;18973;48.580;8.912;2023-09-19T04:55:43;16.10;99.90
32534;DHT22;18973;48.580;8.912;2023-09-19T04:58:08;16.10;99.90
32534;DHT22;18973;48.580;8.912;2023-09-19T05:00:34;16.10;99.90
32534;DHT22;18973;48.580;8.912;2023-09-19T05:03:00;16.10;99.90
32534;DHT22;18973;48.580;8.912;2023-09-19T05:05:26;16.10;99.90
32534;DHT22;18973;48.580;8.912;2023-09-19T05:07:52;16.20;99.90
32534;DHT22;18973;48.580;8.912;2023-09-19T05:10:21;16.10;99.90
32534;DHT22;18973;48.580;8.912;2023-09-19T05:12:47;16.20;99.90
32534;DHT22;18973;48.580;8.912;2023-09-19T05:15:14;16.20;99.90
32534;DHT22;18973;48.580;8.912;2023-09-19T05:17:47;16.10;99.90
32534;DHT22;18973;48.580;8.912;2023-09-19T05:20:13;16.20;99.90
32534;DHT22;18973;48.580;8.912;2023-09-19T05:22:42;16.20;99.90
32534;DHT22;18973;48.580;8.912;2023-09-19T05:25:12;16.30;99.90
32534;DHT22;18973;48.580;8.912;2023-09-19T05:27:43;16.30;99.90
32534;DHT22;18973;48.580;8.912;2023-09-19T05:30:09;16.40;99.90
32534;DHT22;18973;48.580;8.912;2023-09-19T05:32:35;16.30;99.90
32534;DHT22;18973;48.580;8.912;2023-09-19T05:35:01;16.40;99.90
32534;DHT22;18973;48.580;8.912;2023-09-19T05:37:26;16.40;99.90
32534;DHT22;18973;48.580;8.912;2023-09-19T05:39:52;16.40;99.90
32534;DHT22;18973;48.580;8.912;2023-09-19T05:42:19;16.50;99.90
32534;DHT22;18973;48.580;8.912;2023-09-19T05:44:44;16.40;99.90
32534;DHT22;18973;48.580;8.912;2023-09-19T05:47:10;16.20;99.90
32534;DHT22;18973;48.580;8.912;2023-09-19T05:49:36;16.00;99.90
32534;DHT22;18973;48.580;8.912;2023-09-19T05:52:05;16.10;99.90
32534;DHT22;18973;48.580;8.912;2023-09-19T05:54:32;16.10;99.90
32534;DHT22;18973;48.580;8.912;2023-09-19T05:57:02;16.10;99.90
32534;DHT22;18973;48.580;8.912;2023-09-19T05:59:28;16.10;99.90
32534;DHT22;18973;48.580;8.912;2023-09-19T06:01:54;16.10;99.90
32534;DHT22;18973;48.580;8.912;2023-09-19T06:04:20;16.20;99.90
32534;DHT22;18973;48.580;8.912;2023-09-19T06:06:47;16.20;99.90
32534;DHT22;18973;48.580;8.912;2023-09-19T06:09:14;16.20;99.90
32534;DHT22;18973;48.580;8.912;2023-09-19T06:11:42;16.10;99.90
32534;DHT22;18973;48.580;8.912;2023-09-19T06:14:07;16.20;99.90
32534;DHT22;18973;48.580;8.912;2023-09-19T06:16:36;16.20;99.90
32534;DHT22;18973;48.580;8.912;2023-09-19T06:19:03;16.20;99.90
32534;DHT22;18973;48.580;8.912;2023-09-19T06:21:32;16.20;99.90
32534;DHT22;18973;48.580;8.912;2023-09-19T06:23:57;16.20;99.90
32534;DHT22;18973;48.580;8.912;2023-09-19T06:26:23;16.10;99.90
32534;DHT22;18973;48.580;8.912;2023-09-19T06:28:49;16.20;99.90
32534;DHT22;18973;48.580;8.912;2023-09-19T06:31:17;16.30;99.90
32534;DHT22;18973;48.580;8.912;2023-09-19T06:33:43;16.30;99.90
32534;DHT22;18973;48.580;8.912;2023-09-19T06:36:09;16.40;99.90
32534;DHT22;18973;48.580;8.912;2023-09-19T06:38:35;16.30;99.90
32534;DHT22;18973;48.580;8.912;2023-09-19T06:41:02;16.30;99.90
32534;DHT22;18973;48.580;8.912;2023-09-19T06:43:32;16.30;99.90
32534;DHT22;18973;48.580;8.912;2023-09-19T06:46:02;16.30;99.90
32534;DHT22;18973;48.580;8.912;2023-09-19T06:48:29;16.40;99.90
32534;DHT22;18973;48.580;8.912;2023-09-19T06:50:58;16.40;99.90
32534;DHT22;18973;48.580;8.912;2023-09-19T06:53:30;16.40;99.90
32534;DHT22;18973;48.580;8.912;2023-09-19T06:55:57;16.40;99.90
32534;DHT22;18973;48.580;8.912;2023-09-19T06:58:23;16.60;99.90
32534;DHT22;18973;48.580;8.912;2023-09-19T07:00:49;16.70;99.90
32534;DHT22;18973;48.580;8.912;2023-09-19T07:03:15;16.80;99.90
32534;DHT22;18973;48.580;8.912;2023-09-19T07:05:47;17.00;99.90
32534;DHT22;18973;48.580;8.912;2023-09-19T07:08:13;17.10;99.90
32534;DHT22;18973;48.580;8.912;2023-09-19T07:10:40;17.20;99.90
32534;DHT22;18973;48.580;8.912;2023-09-19T07:13:07;17.40;99.90
32534;DHT22;18973;48.580;8.912;2023-09-19T07:15:36;17.50;99.90
32534;DHT22;18973;48.580;8.912;2023-09-19T07:18:05;17.60;99.90
32534;DHT22;18973;48.580;8.912;2023-09-19T07:20:32;17.70;99.90
32534;DHT22;18973;48.580;8.912;2023-09-19T07:23:01;17.80;99.90
32534;DHT22;18973;48.580;8.912;2023-09-19T07:25:30;18.60;99.90
32534;DHT22;18973;48.580;8.912;2023-09-19T07:27:58;19.30;99.90
32534;DHT22;18973;48.580;8.912;2023-09-19T07:30:27;19.40;99.90
32534;DHT22;18973;48.580;8.912;2023-09-19T07:32:53;19.30;99.90
32534;DHT22;18973;48.580;8.912;2023-09-19T07:35:19;19.20;99.90
32534;DHT22;18973;48.580;8.912;2023-09-19T07:37:50;19.00;99.90
32534;DHT22;18973;48.580;8.912;2023-09-19T07:40:18;18.90;99.90
32534;DHT22;18973;48.580;8.912;2023-09-19T07:42:44;18.80;99.90
32534;DHT22;18973;48.580;8.912;2023-09-19T07:45:13;18.70;99.90
32534;DHT22;18973;48.580;8.912;2023-09-19T07:47:49;18.50;99.90
32534;DHT22;18973;48.580;8.912;2023-09-19T07:50:16;18.50;99.90
32534;DHT22;18973;48.580;8.912;2023-09-19T07:52:44;18.20;99.90
32534;DHT22;18973;48.580;8.912;2023-09-19T07:55:10;17.90;99.90
32534;DHT22;18973;48.580;8.912;2023-09-19T07:57:37;17.90;99.90
32534;DHT22;18973;48.580;8.912;2023-09-19T08:00:03;17.90;99.90
32534;DHT22;18973;48.580;8.912;2023-09-19T08:02:34;17.90;99.90
32534;DHT22;18973;48.580;8.912;2023-09-19T08:05:00;18.10;99.90
32534;DHT22;18973;48.580;8.912;2023-09-19T08:07:26;18.20;99.90
32534;DHT22;18973;48.580;8.912;2023-09-19T08:09:52;18.30;99.90
32534;DHT22;18973;48.580;8.912;2023-09-19T08:12:17;18.40;99.90
32534;DHT22;18973;48.580;8.912;2023-09-19T08:14:45;18.40;99.90
32534;DHT22;18973;48.580;8.912;2023-09-19T08:17:12;18.20;99.90
32534;DHT22;18973;48.580;8.912;2023-09-19T08:19:38;18.10;99.90
32534;DHT22;18973;48.580;8.912;2023-09-19T08:22:07;18.10;99.90
32534;DHT22;18973;48.580;8.912;2023-09-19T08:24:36;18.10;99.90
32534;DHT22;18973;48.580;8.912;2023-09-19T08:27:03;18.20;99.90
32534;DHT22;18973;48.580;8.912;2023-09-19T08:29:30;18.10;99.90
32534;DHT22;18973;48.580;8.912;2023-09-19T08:31:59;18.20;99.90
32534;DHT22;18973;48.580;8.912;2023-09-19T08:34:25;18.20;99.90
32534;DHT22;18973;48.580;8.912;2023-09-19T08:36:54;18.30;99.90
32534;DHT22;18973;48.580;8.912;2023-09-19T08:39:24;18.50;99.90
32534;DHT22;18973;48.580;8.912;2023-09-19T08:41:51;18.80;99.90
32534;DHT22;18973;48.580;8.912;2023-09-19T08:44:22;18.90;99.90
32534;DHT22;18973;48.580;8.912;2023-09-19T08:46:49;19.20;99.90
32534;DHT22;18973;48.580;8.912;2023-09-19T08:49:47;19.40;99.90
32534;DHT22;18973;48.580;8.912;2023-09-19T08:52:25;19.40;99.90
32534;DHT22;18973;48.580;8.912;2023-09-19T08:54:55;19.50;99.90
32534;DHT22;18973;48.580;8.912;2023-09-19T08:57:26;19.20;99.90
32534;DHT22;18973;48.580;8.912;2023-09-19T08:59:54;19.20;99.90
32534;DHT22;18973;48.580;8.912;2023-09-19T09:02:21;19.00;99.90
32534;DHT22;18973;48.580;8.912;2023-09-19T09:04:49;19.00;99.90
32534;DHT22;18973;48.580;8.912;2023-09-19T09:07:16;19.20;99.90
32534;DHT22;18973;48.580;8.912;2023-09-19T09:09:44;19.30;99.90
32534;DHT22;18973;48.580;8.912;2023-09-19T09:12:14;19.50;99.90
32534;DHT22;18973;48.580;8.912;2023-09-19T09:14:44;19.60;99.90
32534;DHT22;18973;48.580;8.912;2023-09-19T09:17:11;19.50;99.90
32534;DHT22;18973;48.580;8.912;2023-09-19T09:19:37;19.60;99.90
32534;DHT22;18973;48.580;8.912;2023-09-19T09:22:07;19.60;99.90
32534;DHT22;18973;48.580;8.912;2023-09-19T09:24:33;19.70;99.90
32534;DHT22;18973;48.580;8.912;2023-09-19T09:26:59;19.70;99.90
32534;DHT22;18973;48.580;8.912;2023-09-19T09:34:49;19.50;99.90
32534;DHT22;18973;48.580;8.912;2023-09-19T09:37:16;19.40;99.90
32534;DHT22;18973;48.580;8.912;2023-09-19T09:39:56;19.60;99.90
32534;DHT22;18973;48.580;8.912;2023-09-19T09:42:34;20.00;99.90
32534;DHT22;18973;48.580;8.912;2023-09-19T09:45:14;20.40;99.90
32534;DHT22;18973;48.580;8.912;2023-09-19T09:47:47;21.00;99.90
32534;DHT22;18973;48.580;8.912;2023-09-19T09:50:31;21.30;99.90
32534;DHT22;18973;48.580;8.912;2023-09-19T09:53:03;21.50;99.90
32534;DHT22;18973;48.580;8.912;2023-09-19T09:55:58;21.60;99.90
32534;DHT22;18973;48.580;8.912;2023-09-19T09:58:25;21.70;99.90
32534;DHT22;18973;48.580;8.912;2023-09-19T10:00:55;21.80;99.90
32534;DHT22;18973;48.580;8.912;2023-09-19T10:03:38;22.10;99.90
32534;DHT22;18973;48.580;8.912;2023-09-19T10:06:07;22.40;99.90
32534;DHT22;18973;48.580;8.912;2023-09-19T10:09:01;22.70;99.90
32534;DHT22;18973;48.580;8.912;2023-09-19T10:12:06;23.00;99.90
32534;DHT22;18973;48.580;8.912;2023-09-19T10:14:37;23.30;99.90
32534;DHT22;18973;48.580;8.912;2023-09-19T10:17:05;23.40;99.90
32534;DHT22;18973;48.580;8.912;2023-09-19T10:19:37;23.70;99.90
32534;DHT22;18973;48.580;8.912;2023-09-19T10:22:11;23.80;99.90
32534;DHT22;18973;48.580;8.912;2023-09-19T10:24:38;24.10;99.40
32534;DHT22;18973;48.580;8.912;2023-09-19T10:27:06;24.20;99.20
32534;DHT22;18973;48.580;8.912;2023-09-19T10:29:36;24.40;98.70
32534;DHT22;18973;48.580;8.912;2023-09-19T10:32:06;24.60;97.50
32534;DHT22;18973;48.580;8.912;2023-09-19T10:34:35;24.70;97.70
32534;DHT22;18973;48.580;8.912;2023-09-19T10:37:02;24.80;97.40
32534;DHT22;18973;48.580;8.912;2023-09-19T10:39:32;24.80;96.90
32534;DHT22;18973;48.580;8.912;2023-09-19T10:42:02;24.60;98.00
32534;DHT22;18973;48.580;8.912;2023-09-19T10:44:32;24.80;96.80
32534;DHT22;18973;48.580;8.912;2023-09-19T10:46:58;24.90;97.30
32534;DHT22;18973;48.580;8.912;2023-09-19T10:49:26;25.20;96.10
32534;DHT22;18973;48.580;8.912;2023-09-19T10:51:57;25.30;96.70
32534;DHT22;18973;48.580;8.912;2023-09-19T10:54:31;25.40;96.30
32534;DHT22;18973;48.580;8.912;2023-09-19T10:57:00;25.30;95.50
32534;DHT22;18973;48.580;8.912;2023-09-19T10:59:26;25.00;95.40
32534;DHT22;18973;48.580;8.912;2023-09-19T11:02:16;24.90;97.40
32534;DHT22;18973;48.580;8.912;2023-09-19T11:04:43;24.90;96.90
32534;DHT22;18973;48.580;8.912;2023-09-19T11:07:14;24.80;96.10
32534;DHT22;18973;48.580;8.912;2023-09-19T11:09:48;24.80;96.70
32534;DHT22;18973;48.580;8.912;2023-09-19T11:24:29;24.30;97.20
32534;DHT22;18973;48.580;8.912;2023-09-19T11:27:14;24.40;98.50
32534;DHT22;18973;48.580;8.912;2023-09-19T11:29:42;24.60;97.80
32534;DHT22;18973;48.580;8.912;2023-09-19T11:32:08;24.30;96.00
32534;DHT22;18973;48.580;8.912;2023-09-19T11:34:45;24.10;96.60
32534;DHT22;18973;48.580;8.912;2023-09-19T11:40:06;23.70;97.70
32534;DHT22;18973;48.580;8.912;2023-09-19T11:48:06;23.80;98.40
32534;DHT22;18973;48.580;8.912;2023-09-19T11:50:32;23.60;98.50
32534;DHT22;18973;48.580;8.912;2023-09-19T11:53:00;23.60;98.80
32534;DHT22;18973;48.580;8.912;2023-09-19T11:55:28;23.30;98.80
32534;DHT22;18973;48.580;8.912;2023-09-19T11:57:58;23.30;97.10
32534;DHT22;18973;48.580;8.912;2023-09-19T12:00:24;23.20;98.60
32534;DHT22;18973;48.580;8.912;2023-09-19T12:02:55;23.20;98.10
32534;DHT22;18973;48.580;8.912;2023-09-19T12:05:29;23.20;99.90
32534;DHT22;18973;48.580;8.912;2023-09-19T12:07:55;23.40;98.70
32534;DHT22;18973;48.580;8.912;2023-09-19T12:10:21;23.50;99.00
32534;DHT22;18973;48.580;8.912;2023-09-19T12:12:49;23.30;99.10
32534;DHT22;18973;48.580;8.912;2023-09-19T12:15:17;22.90;98.50
32534;DHT22;18973;48.580;8.912;2023-09-19T12:17:48;22.70;99.00
32534;DHT22;18973;48.580;8.912;2023-09-19T12:20:14;22.10;99.60
32534;DHT22;18973;48.580;8.912;2023-09-19T12:22:44;22.10;99.90
32534;DHT22;18973;48.580;8.912;2023-09-19T12:25:12;22.10;99.90
32534;DHT22;18973;48.580;8.912;2023-09-19T12:27:45;22.20;99.90
32534;DHT22;18973;48.580;8.912;2023-09-19T12:30:16;22.10;99.90
32534;DHT22;18973;48.580;8.912;2023-09-19T12:32:43;22.00;99.90
32534;DHT22;18973;48.580;8.912;2023-09-19T12:35:10;22.00;99.90
32534;DHT22;18973;48.580;8.912;2023-09-19T12:37:51;22.00;99.90
32534;DHT22;18973;48.580;8.912;2023-09-19T12:40:21;22.10;99.90
32534;DHT22;18973;48.580;8.912;2023-09-19T12:42:57;22.10;99.90
32534;DHT22;18973;48.580;8.912;2023-09-19T12:45:29;22.30;99.90
32534;DHT22;18973;48.580;8.912;2023-09-19T12:48:21;22.50;99.90
32534;DHT22;18973;48.580;8.912;2023-09-19T12:53:33;23.10;99.90
32534;DHT22;18973;48.580;8.912;2023-09-19T12:56:00;23.10;98.20
32534;DHT22;18973;48.580;8.912;2023-09-19T12:58:25;23.00;99.00
32534;DHT22;18973;48.580;8.912;2023-09-19T13:00:52;22.90;99.50
32534;DHT22;18973;48.580;8.912;2023-09-19T13:05:55;22.70;99.90
32534;DHT22;18973;48.580;8.912;2023-09-19T13:08:29;22.70;99.80
32534;DHT22;18973;48.580;8.912;2023-09-19T13:13:33;22.50;98.80
32534;DHT22;18973;48.580;8.912;2023-09-19T13:16:00;22.70;99.90
32534;DHT22;18973;48.580;8.912;2023-09-19T13:18:27;23.00;99.90
32534;DHT22;18973;48.580;8.912;2023-09-19T13:21:08;23.30;98.60
32534;DHT22;18973;48.580;8.912;2023-09-19T13:23:43;23.50;98.90
32534;DHT22;18973;48.580;8.912;2023-09-19T13:26:12;23.60;96.30
32534;DHT22;18973;48.580;8.912;2023-09-19T13:28:38;23.60;96.10
32534;DHT22;18973;48.580;8.912;2023-09-19T13:31:04;23.50;96.90
32534;DHT22;18973;48.580;8.912;2023-09-19T13:33:32;23.50;96.10
32534;DHT22;18973;48.580;8.912;2023-09-19T13:35:57;23.50;95.70
32534;DHT22;18973;48.580;8.912;2023-09-19T13:38:23;23.50;95.90
32534;DHT22;18973;48.580;8.912;2023-09-19T13:40:49;23.50;95.60
32534;DHT22;18973;48.580;8.912;2023-09-19T13:43:18;23.40;94.30
32534;DHT22;18973;48.580;8.912;2023-09-19T13:45:43;23.40;94.60
32534;DHT22;18973;48.580;8.912;2023-09-19T13:48:09;23.40;94.60
32534;DHT22;18973;48.580;8.912;2023-09-19T13:50:37;23.40;95.00
32534;DHT22;18973;48.580;8.912;2023-09-19T13:53:08;23.40;94.00
32534;DHT22;18973;48.580;8.912;2023-09-19T13:55:33;23.40;95.60
32534;DHT22;18973;48.580;8.912;2023-09-19T13:57:59;23.50;97.20
32534;DHT22;18973;48.580;8.912;2023-09-19T14:00:25;23.60;96.20
32534;DHT22;18973;48.580;8.912;2023-09-19T14:02:51;23.70;96.70
32534;DHT22;18973;48.580;8.912;2023-09-19T14:05:17;23.70;96.70
32534;DHT22;18973;48.580;8.912;2023-09-19T14:07:44;23.80;95.80
32534;DHT22;18973;48.580;8.912;2023-09-19T14:10:11;23.70;95.20
32534;DHT22;18973;48.580;8.912;2023-09-19T14:12:40;23.70;94.40
32534;DHT22;18973;48.580;8.912;2023-09-19T14:15:10;23.60;94.80
32534;DHT22;18973;48.580;8.912;2023-09-19T14:17:37;23.60;95.70
32534;DHT22;18973;48.580;8.912;2023-09-19T14:20:03;23.50;95.30
32534;DHT22;18973;48.580;8.912;2023-09-19T14:22:31;23.50;95.20
32534;DHT22;18973;48.580;8.912;2023-09-19T14:24:57;23.40;94.60
32534;DHT22;18973;48.580;8.912;2023-09-19T14:27:25;23.40;95.50
32534;DHT22;18973;48.580;8.912;2023-09-19T14:29:50;23.30;96.30
32534;DHT22;18973;48.580;8.912;2023-09-19T14:32:17;23.30;95.50
32534;DHT22;18973;48.580;8.912;2023-09-19T14:34:43;23.30;95.00
32534;DHT22;18973;48.580;8.912;2023-09-19T14:37:10;23.30;95.70
32534;DHT22;18973;48.580;8.912;2023-09-19T14:39:37;23.30;96.10
32534;DHT22;18973;48.580;8.912;2023-09-19T14:42:05;23.20;95.90
32534;DHT22;18973;48.580;8.912;2023-09-19T14:44:30;23.20;95.60
32534;DHT22;18973;48.580;8.912;2023-09-19T14:46:56;23.10;95.10
32534;DHT22;18973;48.580;8.912;2023-09-19T14:49:22;23.10;95.80
32534;DHT22;18973;48.580;8.912;2023-09-19T14:51:47;23.00;95.40
32534;DHT22;18973;48.580;8.912;2023-09-19T14:54:14;23.10;95.50
32534;DHT22;18973;48.580;8.912;2023-09-19T14:56:42;23.10;95.20
32534;DHT22;18973;48.580;8.912;2023-09-19T14:59:08;22.80;95.90
32534;DHT22;18973;48.580;8.912;2023-09-19T15:01:36;22.80;96.00
32534;DHT22;18973;48.580;8.912;2023-09-19T15:04:01;22.70;95.90
32534;DHT22;18973;48.580;8.912;2023-09-19T15:06:27;22.60;95.50
32534;DHT22;18973;48.580;8.912;2023-09-19T15:08:53;22.50;96.00
32534;DHT22;18973;48.580;8.912;2023-09-19T15:11:20;22.40;96.50
32534;DHT22;18973;48.580;8.912;2023-09-19T15:13:47;22.40;96.80
32534;DHT22;18973;48.580;8.912;2023-09-19T15:16:13;22.40;96.90
32534;DHT22;18973;48.580;8.912;2023-09-19T15:18:43;22.40;97.20
32534;DHT22;18973;48.580;8.912;2023-09-19T15:21:13;22.40;97.40
32534;DHT22;18973;48.580;8.912;2023-09-19T15:23:41;22.50;96.40
32534;DHT22;18973;48.580;8.912;2023-09-19T15:26:08;22.40;97.00
32534;DHT22;18973;48.580;8.912;2023-09-19T15:28:34;22.50;96.30
32534;DHT22;18973;48.580;8.912;2023-09-19T15:31:05;22.40;97.10
32534;DHT22;18973;48.580;8.912;2023-09-19T15:33:31;22.30;97.40
32534;DHT22;18973;48.580;8.912;2023-09-19T15:36:14;22.30;96.60
32534;DHT22;18973;48.580;8.912;2023-09-19T15:43:57;22.20;96.90
32534;DHT22;18973;48.580;8.912;2023-09-19T15:46:25;22.20;96.40
32534;DHT22;18973;48.580;8.912;2023-09-19T15:48:53;22.10;96.10
32534;DHT22;18973;48.580;8.912;2023-09-19T15:51:18;22.10;96.90
32534;DHT22;18973;48.580;8.912;2023-09-19T15:53:48;22.20;96.40
32534;DHT22;18973;48.580;8.912;2023-09-19T15:56:16;22.10;96.30
32534;DHT22;18973;48.580;8.912;2023-09-19T15:58:47;22.20;96.40
32534;DHT22;18973;48.580;8.912;2023-09-19T16:01:14;22.20;96.80
32534;DHT22;18973;48.580;8.912;2023-09-19T16:03:47;22.10;97.20
32534;DHT22;18973;48.580;8.912;2023-09-19T16:06:16;22.00;97.00
32534;DHT22;18973;48.580;8.912;2023-09-19T16:08:47;22.00;97.00
32534;DHT22;18973;48.580;8.912;2023-09-19T16:11:13;22.00;96.40
32534;DHT22;18973;48.580;8.912;2023-09-19T16:13:41;21.90;97.10
32534;DHT22;18973;48.580;8.912;2023-09-19T16:16:11;21.90;97.40
32534;DHT22;18973;48.580;8.912;2023-09-19T16:18:38;21.90;97.70
32534;DHT22;18973;48.580;8.912;2023-09-19T16:21:06;21.90;97.50
32534;DHT22;18973;48.580;8.912;2023-09-19T16:23:36;21.80;97.70